Time;durP1;ratioP1;P1;durP2;ratioP2;P2;SDS_P1;SDS_P2;PMS_P1;PMS_P2;Temp;Humidity;BMP_temperature;BMP_pressure;BME280_temperature;BME280_humidity;BME280_pressure;Samples;Min_cycle;Max_cycle;Signal;HPM_P1;HPM_P2
2023/05/31 00:00:42;;;;;;;29.33;27.23;;;16.20;99.90;;;;;;5225746;28;20051;-67
2023/05/31 00:03:13;;;;;;;29.60;27.42;;;16.20;99.90;;;;;;5225670;28;20013;-69
2023/05/31 00:05:43;;;;;;;29.38;27.05;;;16.20;99.90;;;;;;5229354;28;20032;-69
2023/05/31 00:08:14;;;;;;;28.60;26.63;;;16.10;99.90;;;;;;5229639;28;20044;-68
2023/05/31 00:10:45;;;;;;;30.70;28.02;;;16.00;99.90;;;;;;5229833;28;20037;-67
2023/05/31 00:13:16;;;;;;;29.80;27.15;;;16.10;99.90;;;;;;5229440;28;20033;-70
2023/05/31 00:15:47;;;;;;;28.67;26.67;;;16.00;99.90;;;;;;5229405;28;20043;-66
2023/05/31 00:18:18;;;;;;;27.88;25.88;;;15.90;99.90;;;;;;5211302;28;20110;-69
2023/05/31 00:20:49;;;;;;;27.80;25.52;;;15.60;99.90;;;;;;5228994;28;20378;-66
2023/05/31 00:23:20;;;;;;;28.08;26.08;;;15.80;99.90;;;;;;5229219;28;20021;-68
2023/05/31 00:25:51;;;;;;;27.60;25.60;;;15.60;99.90;;;;;;5229280;28;20040;-70
2023/05/31 00:28:22;;;;;;;30.40;28.15;;;15.70;99.90;;;;;;5211213;28;20047;-66
2023/05/31 00:30:53;;;;;;;30.17;27.95;;;15.70;99.90;;;;;;5228936;28;20028;-69
2023/05/31 00:33:23;;;;;;;30.27;28.02;;;15.70;99.90;;;;;;5229032;28;20029;-67
2023/05/31 00:35:54;;;;;;;30.23;27.98;;;15.70;99.90;;;;;;5228956;28;20025;-66
2023/05/31 00:38:27;;;;;;;31.10;28.85;;;15.70;99.90;;;;;;5228913;28;20031;-66
2023/05/31 00:40:58;;;;;;;29.33;27.33;;;15.70;99.90;;;;;;5210937;28;20496;-66
2023/05/31 00:43:29;;;;;;;29.33;27.23;;;15.60;99.90;;;;;;5228913;28;20052;-69
2023/05/31 00:46:00;;;;;;;29.65;27.48;;;15.60;99.90;;;;;;5228700;28;20502;-70
2023/05/31 00:48:31;;;;;;;29.25;26.90;;;15.50;99.90;;;;;;5228537;28;20021;-68
2023/05/31 00:51:02;;;;;;;32.00;29.50;;;15.50;99.90;;;;;;5228555;28;20017;-70
2023/05/31 00:53:33;;;;;;;31.17;28.70;;;15.50;99.90;;;;;;5210547;28;20033;-67
2023/05/31 00:56:04;;;;;;;28.70;26.67;;;15.40;99.90;;;;;;5228614;28;20479;-70
2023/05/31 00:58:37;;;;;;;28.27;26.42;;;15.50;99.90;;;;;;5228543;28;20060;-66
2023/05/31 01:01:08;;;;;;;29.90;27.90;;;15.40;99.90;;;;;;5228347;28;20044;-67
2023/05/31 01:03:42;;;;;;;30.00;27.83;;;15.40;99.90;;;;;;5228464;28;20385;-68
2023/05/31 01:06:13;;;;;;;31.92;29.40;;;15.40;99.90;;;;;;5228304;28;20029;-67
2023/05/31 01:08:44;;;;;;;29.00;26.98;;;15.30;99.90;;;;;;5228265;28;20121;-69
2023/05/31 01:11:15;;;;;;;31.17;28.98;;;15.40;99.90;;;;;;5228120;28;20533;-66
2023/05/31 01:14:04;;;;;;;29.48;27.48;;;15.50;99.90;;;;;;5228244;28;20029;-66
2023/05/31 01:16:42;;;;;;;30.20;28.00;;;15.50;99.90;;;;;;5227195;28;20025;-69
2023/05/31 01:19:20;;;;;;;28.85;26.67;;;15.50;99.90;;;;;;5227918;28;20496;-66
2023/05/31 01:22:20;;;;;;;29.75;27.60;;;15.20;99.90;;;;;;5228247;28;20489;-67
2023/05/31 01:25:04;;;;;;;30.73;28.35;;;15.40;99.90;;;;;;5228436;28;20104;-67
2023/05/31 01:27:36;;;;;;;29.77;27.38;;;15.40;99.90;;;;;;5228116;28;20131;-68
2023/05/31 01:30:09;;;;;;;29.92;27.67;;;15.40;99.90;;;;;;5227911;28;20469;-66
2023/05/31 01:32:41;;;;;;;27.40;25.42;;;15.40;99.90;;;;;;5227915;28;20025;-70
2023/05/31 01:35:13;;;;;;;28.50;26.60;;;15.30;99.90;;;;;;5210015;28;20485;-66
2023/05/31 01:37:45;;;;;;;31.33;29.13;;;15.30;99.90;;;;;;5227775;28;20028;-69
2023/05/31 01:40:17;;;;;;;30.42;28.23;;;15.50;99.90;;;;;;5227607;28;20032;-70
2023/05/31 01:42:50;;;;;;;27.60;25.50;;;15.40;99.90;;;;;;5227571;28;20029;-67
2023/05/31 01:45:22;;;;;;;29.85;27.75;;;15.30;99.90;;;;;;5227549;28;20469;-70
2023/05/31 01:48:04;;;;;;;30.45;28.27;;;15.30;99.90;;;;;;5227375;28;20111;-67
2023/05/31 01:50:36;;;;;;;30.65;28.23;;;15.10;99.90;;;;;;5227411;28;20504;-66
2023/05/31 01:53:07;;;;;;;29.58;27.38;;;15.40;99.90;;;;;;5227468;28;20027;-67
2023/05/31 01:55:38;;;;;;;30.80;28.52;;;15.40;99.90;;;;;;5227550;28;20024;-66
2023/05/31 01:58:11;;;;;;;31.23;28.85;;;15.20;99.90;;;;;;5227237;28;20552;-69
2023/05/31 02:00:42;;;;;;;30.38;28.17;;;15.30;99.90;;;;;;5227195;28;20028;-66
2023/05/31 02:03:13;;;;;;;29.98;27.33;;;15.20;99.90;;;;;;5227150;28;20090;-66
2023/05/31 02:05:57;;;;;;;32.20;29.55;;;15.30;99.90;;;;;;5227106;28;20480;-66
2023/05/31 02:08:28;;;;;;;30.77;28.27;;;15.30;99.90;;;;;;5227065;28;20075;-68
2023/05/31 02:10:59;;;;;;;29.40;27.08;;;15.20;99.90;;;;;;5227086;28;20905;-70
2023/05/31 02:13:30;;;;;;;32.53;30.00;;;15.00;99.90;;;;;;5227092;28;20056;-70
2023/05/31 02:16:05;;;;;;;30.88;28.23;;;14.80;99.90;;;;;;5226948;28;20432;-68
2023/05/31 02:18:36;;;;;;;31.63;28.98;;;14.90;99.90;;;;;;5226625;28;20484;-68
2023/05/31 02:21:07;;;;;;;31.98;29.38;;;14.90;99.90;;;;;;5226950;28;20045;-66
2023/05/31 02:23:38;;;;;;;34.10;31.17;;;14.90;99.90;;;;;;5226898;28;20674;-70
2023/05/31 02:26:09;;;;;;;34.38;31.40;;;15.10;99.90;;;;;;5226838;28;20025;-68
2023/05/31 02:28:40;;;;;;;33.97;30.95;;;15.10;99.90;;;;;;5226596;28;20041;-70
2023/05/31 02:31:11;;;;;;;34.85;32.00;;;15.00;99.90;;;;;;5226625;28;20469;-69
2023/05/31 02:33:41;;;;;;;34.00;31.23;;;15.00;99.90;;;;;;5226671;28;20047;-66
2023/05/31 02:36:12;;;;;;;34.67;31.75;;;14.80;99.90;;;;;;5226619;28;20024;-70
2023/05/31 02:38:44;;;;;;;35.80;32.35;;;14.80;99.90;;;;;;5226725;28;20032;-66
2023/05/31 02:41:15;;;;;;;35.47;31.70;;;15.00;99.90;;;;;;5227030;28;20402;-68
2023/05/31 02:43:45;;;;;;;39.53;35.80;;;15.00;99.90;;;;;;5226633;28;20055;-67
2023/05/31 02:46:16;;;;;;;46.28;35.58;;;15.00;99.90;;;;;;5226514;28;20052;-68
2023/05/31 02:48:47;;;;;;;37.40;33.95;;;14.90;99.90;;;;;;5226506;28;20033;-65
2023/05/31 02:51:18;;;;;;;48.95;36.22;;;14.90;99.90;;;;;;5226594;28;20028;-69
2023/05/31 02:53:49;;;;;;;41.08;36.83;;;14.80;99.90;;;;;;5226589;28;20696;-69
2023/05/31 02:56:20;;;;;;;37.60;34.00;;;14.90;99.90;;;;;;5226353;28;20035;-67
2023/05/31 02:58:51;;;;;;;36.08;32.70;;;15.00;99.90;;;;;;5226009;28;20076;-68
2023/05/31 03:01:22;;;;;;;36.28;33.03;;;15.00;99.90;;;;;;5226080;28;20430;-66
2023/05/31 03:03:53;;;;;;;40.78;37.03;;;15.10;99.90;;;;;;5208183;28;20035;-66
2023/05/31 03:06:24;;;;;;;39.88;35.90;;;15.30;99.90;;;;;;5226065;28;20136;-66
2023/05/31 03:08:55;;;;;;;41.83;37.45;;;15.30;99.90;;;;;;5226089;28;20450;-66
2023/05/31 03:11:26;;;;;;;52.80;40.47;;;15.30;99.90;;;;;;5226204;28;20053;-67
2023/05/31 03:13:57;;;;;;;45.17;40.25;;;15.20;99.90;;;;;;5226414;28;20032;-68
2023/05/31 03:16:28;;;;;;;44.03;39.75;;;15.30;99.90;;;;;;5226272;28;20025;-66
2023/05/31 03:18:59;;;;;;;48.85;44.13;;;15.40;99.90;;;;;;5225984;28;20695;-66
2023/05/31 03:21:30;;;;;;;47.50;43.05;;;15.50;99.90;;;;;;5226074;28;20096;-66
2023/05/31 03:24:01;;;;;;;49.25;45.10;;;15.50;99.90;;;;;;5226129;28;20025;-66
2023/05/31 03:26:32;;;;;;;47.72;43.67;;;15.50;99.90;;;;;;5225963;28;20477;-68
2023/05/31 03:29:03;;;;;;;44.78;40.35;;;15.60;99.90;;;;;;5208161;28;20499;-67
2023/05/31 03:31:34;;;;;;;47.45;42.50;;;15.60;99.90;;;;;;5226103;28;20028;-69
2023/05/31 03:34:05;;;;;;;49.72;44.70;;;15.70;99.90;;;;;;5226120;28;20087;-69
2023/05/31 03:36:36;;;;;;;70.63;44.72;;;15.70;99.90;;;;;;5226014;28;20040;-67
2023/05/31 03:39:07;;;;;;;50.00;43.55;;;15.60;99.90;;;;;;5227106;28;20024;-69
2023/05/31 03:41:38;;;;;;;49.47;44.05;;;15.60;99.90;;;;;;5229924;28;20025;-67
2023/05/31 03:44:09;;;;;;;50.53;45.05;;;15.60;99.90;;;;;;5229817;28;20097;-67
2023/05/31 03:46:41;;;;;;;48.17;43.58;;;15.70;99.90;;;;;;5229771;28;20037;-66
2023/05/31 03:49:11;;;;;;;47.88;43.53;;;15.70;99.90;;;;;;5229603;28;20059;-66
2023/05/31 03:51:42;;;;;;;48.55;44.08;;;15.80;99.90;;;;;;5229785;28;20005;-67
2023/05/31 03:54:13;;;;;;;50.33;44.92;;;15.90;99.90;;;;;;5212054;28;20021;-67
2023/05/31 03:56:44;;;;;;;52.22;42.40;;;15.80;99.90;;;;;;5230113;28;20029;-67
2023/05/31 03:59:15;;;;;;;48.30;43.53;;;15.70;99.90;;;;;;5229813;28;20017;-67
2023/05/31 04:01:46;;;;;;;47.35;42.63;;;15.70;99.90;;;;;;5229641;28;20037;-69
2023/05/31 04:04:17;;;;;;;45.28;40.90;;;15.80;99.90;;;;;;5229597;28;20021;-69
2023/05/31 04:06:47;;;;;;;49.97;42.78;;;15.80;99.90;;;;;;5229447;28;20039;-67
2023/05/31 04:09:19;;;;;;;46.22;42.00;;;15.70;99.90;;;;;;5229554;28;20516;-68
2023/05/31 04:11:50;;;;;;;47.63;43.30;;;15.80;99.90;;;;;;5229497;28;20465;-69
2023/05/31 04:14:20;;;;;;;47.10;42.53;;;15.80;99.90;;;;;;5229299;28;20024;-69
2023/05/31 04:16:51;;;;;;;44.00;40.33;;;15.90;99.90;;;;;;5229176;28;20469;-70
2023/05/31 04:19:22;;;;;;;55.47;44.00;;;15.90;99.90;;;;;;5228833;28;20029;-70
2023/05/31 04:21:53;;;;;;;50.65;44.40;;;15.80;99.90;;;;;;5229264;28;20227;-66
2023/05/31 04:24:24;;;;;;;43.95;40.63;;;15.80;99.90;;;;;;5229351;28;20021;-70
2023/05/31 04:26:55;;;;;;;45.47;41.42;;;15.80;99.90;;;;;;5229020;28;20481;-66
2023/05/31 04:29:26;;;;;;;45.03;41.53;;;15.70;99.90;;;;;;5228953;28;20032;-68
2023/05/31 04:31:58;;;;;;;45.85;42.55;;;15.90;99.90;;;;;;5229020;28;20029;-68
2023/05/31 04:34:30;;;;;;;49.03;42.47;;;16.10;99.90;;;;;;5228928;28;20366;-69
2023/05/31 04:37:02;;;;;;;41.90;38.92;;;15.90;99.90;;;;;;5228941;28;20599;-67
2023/05/31 04:39:34;;;;;;;40.22;37.40;;;15.90;99.90;;;;;;5228741;28;20120;-66
2023/05/31 04:42:05;;;;;;;43.53;40.08;;;16.10;99.90;;;;;;5228770;28;20082;-68
2023/05/31 04:44:36;;;;;;;39.25;36.45;;;16.10;99.90;;;;;;5228640;28;20013;-67
2023/05/31 04:47:07;;;;;;;40.70;37.90;;;16.20;99.90;;;;;;5228494;28;20043;-70
2023/05/31 04:49:38;;;;;;;43.08;40.08;;;16.30;99.90;;;;;;5228419;28;20082;-65
2023/05/31 04:52:09;;;;;;;39.72;37.03;;;16.40;99.90;;;;;;5228510;28;20029;-67
2023/05/31 04:54:40;;;;;;;37.78;35.15;;;16.40;99.90;;;;;;5228850;28;20032;-68
2023/05/31 04:57:11;;;;;;;35.08;32.67;;;16.50;99.90;;;;;;5228522;28;20077;-66
2023/05/31 04:59:42;;;;;;;32.80;30.45;;;16.70;99.90;;;;;;5228526;28;20437;-70
2023/05/31 05:02:13;;;;;;;33.22;30.92;;;16.80;99.90;;;;;;5228542;28;20028;-67
2023/05/31 05:04:44;;;;;;;31.92;29.75;;;16.90;99.90;;;;;;5228306;28;20465;-67
2023/05/31 05:07:16;;;;;;;30.67;28.77;;;17.00;99.90;;;;;;5228436;28;20488;-69
2023/05/31 05:09:47;;;;;;;30.02;28.23;;;17.30;99.90;;;;;;5228573;28;20108;-66
2023/05/31 05:12:18;;;;;;;28.08;26.25;;;17.40;99.90;;;;;;5228379;28;20167;-70
2023/05/31 05:14:48;;;;;;;28.02;26.30;;;17.50;99.90;;;;;;5228333;28;20028;-68
2023/05/31 05:17:20;;;;;;;30.60;28.65;;;17.60;99.90;;;;;;5228260;28;20017;-69
2023/05/31 05:19:51;;;;;;;30.83;28.83;;;17.80;99.90;;;;;;5227724;28;20099;-71
2023/05/31 05:22:22;;;;;;;28.08;26.27;;;17.90;99.90;;;;;;5228077;28;20063;-70
2023/05/31 05:24:52;;;;;;;29.88;28.00;;;18.20;99.90;;;;;;5228004;28;20021;-69
2023/05/31 05:27:23;;;;;;;34.50;32.30;;;18.40;99.90;;;;;;5227830;28;20477;-69
2023/05/31 05:29:55;;;;;;;34.45;32.30;;;18.50;99.90;;;;;;5231584;28;20029;-69
2023/05/31 05:32:25;;;;;;;32.78;30.65;;;18.60;99.90;;;;;;5227966;28;20483;-70
2023/05/31 05:34:56;;;;;;;35.65;33.35;;;18.80;99.90;;;;;;5228003;28;20025;-69
2023/05/31 05:37:27;;;;;;;36.15;33.85;;;18.90;99.90;;;;;;5227786;28;20139;-66
2023/05/31 05:39:59;;;;;;;36.95;34.35;;;19.10;99.90;;;;;;5227722;28;20089;-70
2023/05/31 05:42:32;;;;;;;34.42;32.10;;;19.30;99.90;;;;;;5227787;28;20032;-67
2023/05/31 05:45:09;;;;;;;32.25;30.10;;;19.30;99.90;;;;;;5227590;28;20400;-70
2023/05/31 05:47:40;;;;;;;31.95;29.83;;;19.40;99.90;;;;;;5227299;28;20028;-68
2023/05/31 05:50:12;;;;;;;30.88;28.85;;;19.30;99.90;;;;;;5227403;28;20412;-70
2023/05/31 05:52:43;;;;;;;30.58;28.58;;;19.40;99.90;;;;;;5227409;28;20040;-68
2023/05/31 05:55:14;;;;;;;37.53;34.80;;;19.50;99.90;;;;;;5227419;28;20025;-70
2023/05/31 05:57:45;;;;;;;34.70;32.53;;;19.50;99.90;;;;;;5227187;28;20117;-66
2023/05/31 06:00:17;;;;;;;37.38;35.00;;;19.50;99.90;;;;;;5227206;28;20491;-67
2023/05/31 06:02:48;;;;;;;33.65;31.38;;;20.00;99.90;;;;;;5226752;28;20020;-70
2023/05/31 06:05:25;;;;;;;33.25;30.95;;;20.00;99.90;;;;;;5227193;28;20032;-70
2023/05/31 06:07:55;;;;;;;30.00;28.00;;;20.10;99.90;;;;;;5227053;28;20041;-66
2023/05/31 06:10:26;;;;;;;28.88;26.95;;;20.20;99.90;;;;;;5227026;28;20044;-70
2023/05/31 06:12:57;;;;;;;27.88;25.95;;;20.30;99.90;;;;;;5227078;28;20033;-71
2023/05/31 06:15:29;;;;;;;29.77;27.70;;;20.50;99.90;;;;;;5227181;28;20028;-69
2023/05/31 06:17:59;;;;;;;33.15;31.00;;;20.60;99.90;;;;;;5226903;28;20108;-70
2023/05/31 06:20:30;;;;;;;36.45;33.95;;;20.70;99.90;;;;;;5226869;28;20174;-67
2023/05/31 06:23:01;;;;;;;35.80;33.63;;;20.80;99.90;;;;;;5227003;28;20017;-66
2023/05/31 06:25:33;;;;;;;39.13;36.58;;;20.70;99.90;;;;;;5209042;28;20024;-68
2023/05/31 06:28:04;;;;;;;33.95;31.80;;;20.90;99.90;;;;;;5226868;28;20037;-67
2023/05/31 06:30:35;;;;;;;35.65;33.33;;;21.00;99.90;;;;;;5226757;28;20036;-68
2023/05/31 06:33:06;;;;;;;32.38;30.38;;;21.00;99.90;;;;;;5226761;28;20032;-67
2023/05/31 06:35:37;;;;;;;31.75;29.85;;;21.20;99.90;;;;;;5226599;28;20021;-67
2023/05/31 06:38:14;;;;;;;32.40;30.05;;;21.20;99.90;;;;;;5226687;28;20025;-70
2023/05/31 06:40:45;;;;;;;28.58;26.83;;;21.30;99.90;;;;;;5226630;28;20021;-68
2023/05/31 06:43:16;;;;;;;29.25;27.35;;;21.50;99.90;;;;;;5208867;28;20354;-69
2023/05/31 06:45:48;;;;;;;29.50;27.60;;;21.30;99.90;;;;;;5226558;28;20453;-67
2023/05/31 06:48:20;;;;;;;29.05;27.15;;;21.40;99.90;;;;;;5226310;28;20041;-67
2023/05/31 06:50:50;;;;;;;28.40;26.50;;;21.50;99.90;;;;;;5226381;28;20029;-66
2023/05/31 06:53:21;;;;;;;28.35;26.05;;;21.50;99.90;;;;;;5226380;28;20508;-67
2023/05/31 06:55:52;;;;;;;26.38;24.33;;;21.60;99.90;;;;;;5226468;28;20032;-66
2023/05/31 06:58:23;;;;;;;26.05;24.27;;;21.50;99.90;;;;;;5226170;28;20092;-69
2023/05/31 07:00:55;;;;;;;26.30;24.40;;;21.70;99.90;;;;;;5226276;28;20052;-69
2023/05/31 07:03:26;;;;;;;23.98;22.15;;;21.70;99.90;;;;;;5226288;28;20021;-69
2023/05/31 07:05:57;;;;;;;24.73;22.75;;;21.90;99.90;;;;;;5226230;28;20051;-66
2023/05/31 07:08:28;;;;;;;25.45;23.60;;;22.00;99.90;;;;;;5226168;28;20516;-67
2023/05/31 07:10:58;;;;;;;23.38;21.38;;;22.10;99.90;;;;;;5226189;28;20029;-69
2023/05/31 07:13:29;;;;;;;25.52;23.15;;;22.20;99.90;;;;;;5226219;28;20033;-68
2023/05/31 07:16:00;;;;;;;23.52;21.92;;;22.30;99.90;;;;;;5230484;28;20032;-67
2023/05/31 07:18:31;;;;;;;22.92;21.23;;;22.50;99.90;;;;;;5230158;28;20472;-67
2023/05/31 07:21:02;;;;;;;23.10;21.25;;;22.50;99.90;;;;;;5230230;28;20045;-67
2023/05/31 07:23:33;;;;;;;23.75;22.15;;;22.60;99.90;;;;;;5230491;28;20025;-67
2023/05/31 07:26:04;;;;;;;22.48;20.50;;;22.80;99.90;;;;;;5230356;28;20021;-66
2023/05/31 07:28:35;;;;;;;23.83;21.92;;;22.70;99.90;;;;;;5230157;28;20459;-70
2023/05/31 07:31:06;;;;;;;23.10;21.50;;;22.80;99.90;;;;;;5230363;28;20096;-70
2023/05/31 07:33:36;;;;;;;25.38;23.52;;;22.60;99.90;;;;;;5212444;28;20033;-67
2023/05/31 07:36:07;;;;;;;24.92;23.20;;;22.90;99.90;;;;;;5230392;28;20078;-69
2023/05/31 07:38:38;;;;;;;23.48;21.70;;;23.00;99.90;;;;;;5230199;28;20029;-71
2023/05/31 07:41:09;;;;;;;22.50;20.80;;;23.00;99.90;;;;;;5230120;28;20499;-67
2023/05/31 07:43:43;;;;;;;23.55;21.92;;;23.00;99.90;;;;;;5230032;28;20033;-68
2023/05/31 07:46:14;;;;;;;25.70;23.42;;;22.90;99.90;;;;;;5229985;28;20078;-66
2023/05/31 07:48:45;;;;;;;23.17;21.20;;;23.10;99.90;;;;;;5229655;28;20037;-70
2023/05/31 07:51:15;;;;;;;23.55;21.75;;;23.20;99.90;;;;;;5230046;28;20437;-67
2023/05/31 07:53:46;;;;;;;23.48;21.77;;;23.30;99.90;;;;;;5229723;28;20382;-67
2023/05/31 07:56:17;;;;;;;23.17;21.52;;;23.00;99.90;;;;;;5229834;28;20043;-68
2023/05/31 07:58:48;;;;;;;22.63;20.80;;;23.30;99.90;;;;;;5229568;28;20541;-69
2023/05/31 08:01:19;;;;;;;22.25;20.50;;;23.50;99.90;;;;;;5229691;28;20025;-67
2023/05/31 08:03:50;;;;;;;21.83;20.30;;;23.60;99.90;;;;;;5229523;28;20037;-67
2023/05/31 08:06:22;;;;;;;21.67;19.95;;;23.80;99.90;;;;;;5229628;28;20025;-67
2023/05/31 08:08:53;;;;;;;21.42;19.80;;;24.00;99.90;;;;;;5229433;28;20458;-68
2023/05/31 08:11:23;;;;;;;19.85;18.45;;;23.90;99.90;;;;;;5229426;28;20014;-69
2023/05/31 08:13:54;;;;;;;17.92;16.42;;;24.10;99.90;;;;;;5229448;28;20487;-67
2023/05/31 08:16:25;;;;;;;18.08;16.73;;;24.00;99.90;;;;;;5229158;28;20025;-71
2023/05/31 08:18:56;;;;;;;19.67;18.30;;;24.10;99.90;;;;;;5229073;28;20029;-66
2023/05/31 08:21:27;;;;;;;19.80;18.20;;;24.20;99.90;;;;;;5229142;28;20049;-67
2023/05/31 08:24:00;;;;;;;20.70;18.95;;;24.20;99.90;;;;;;5211364;28;20497;-70
2023/05/31 08:26:32;;;;;;;20.30;18.85;;;24.10;99.90;;;;;;5210606;28;20431;-71
2023/05/31 08:29:03;;;;;;;19.25;17.67;;;24.20;99.90;;;;;;5229097;28;20127;-66
2023/05/31 08:31:34;;;;;;;20.17;18.70;;;24.10;99.90;;;;;;5228991;28;20029;-67
2023/05/31 08:34:06;;;;;;;20.05;18.58;;;24.50;99.90;;;;;;5228949;28;20105;-71
2023/05/31 08:36:36;;;;;;;20.63;19.30;;;24.50;99.90;;;;;;5228777;28;20095;-71
2023/05/31 08:39:08;;;;;;;18.70;17.40;;;24.40;99.90;;;;;;5228802;28;20029;-66
2023/05/31 08:41:54;;;;;;;20.35;18.67;;;24.70;99.90;;;;;;5228837;28;20503;-68
2023/05/31 08:44:26;;;;;;;19.23;17.92;;;24.80;99.90;;;;;;5228902;28;20087;-67
2023/05/31 08:47:08;;;;;;;20.60;19.10;;;24.60;99.90;;;;;;5228617;28;20037;-71
2023/05/31 08:49:40;;;;;;;19.17;17.88;;;24.30;99.90;;;;;;5228705;28;20040;-67
2023/05/31 08:52:11;;;;;;;19.88;18.23;;;24.30;99.90;;;;;;5228761;28;20021;-69
2023/05/31 08:54:43;;;;;;;21.40;19.80;;;24.80;99.90;;;;;;5228673;28;20016;-67
2023/05/31 08:57:14;;;;;;;22.02;20.45;;;25.10;99.90;;;;;;5228706;28;20025;-70
2023/05/31 08:59:45;;;;;;;19.60;18.20;;;25.00;99.90;;;;;;5228533;28;21010;-70
2023/05/31 09:02:17;;;;;;;21.35;19.45;;;24.90;99.90;;;;;;5228407;28;20113;-68
2023/05/31 09:04:50;;;;;;;21.38;19.85;;;25.00;99.90;;;;;;5228437;28;20131;-67
2023/05/31 09:07:20;;;;;;;20.95;19.35;;;25.10;99.90;;;;;;5228202;28;20041;-68
2023/05/31 09:09:51;;;;;;;21.75;19.88;;;25.20;99.90;;;;;;5228184;28;20491;-69
2023/05/31 09:12:22;;;;;;;21.42;19.77;;;24.90;99.90;;;;;;5228222;28;20021;-69
2023/05/31 09:14:53;;;;;;;19.92;18.52;;;25.40;99.90;;;;;;5228199;28;20095;-70
2023/05/31 09:17:24;;;;;;;21.27;19.88;;;25.50;99.90;;;;;;5228091;28;20072;-70
2023/05/31 09:20:00;;;;;;;20.05;18.55;;;25.40;99.90;;;;;;5227791;28;20086;-65
2023/05/31 09:22:33;;;;;;;21.08;19.67;;;25.50;99.90;;;;;;5210209;28;20413;-66
2023/05/31 09:25:04;;;;;;;21.15;19.58;;;25.80;99.90;;;;;;5227851;28;20033;-69
2023/05/31 09:27:39;;;;;;;21.77;20.05;;;25.70;99.90;;;;;;5227939;28;20099;-71
2023/05/31 09:30:12;;;;;;;22.70;21.00;;;25.60;99.90;;;;;;5227899;28;20492;-69
2023/05/31 09:32:54;;;;;;;22.80;20.77;;;25.30;99.90;;;;;;5227847;28;20021;-71
2023/05/31 09:35:27;;;;;;;21.48;20.10;;;25.90;99.90;;;;;;5227835;28;20089;-71
2023/05/31 09:38:06;;;;;;;22.13;20.63;;;26.00;99.90;;;;;;5226728;28;20052;-68
2023/05/31 09:40:37;;;;;;;22.42;20.95;;;26.10;99.90;;;;;;5227523;28;20040;-69
2023/05/31 09:43:08;;;;;;;23.10;21.48;;;26.00;99.90;;;;;;5227543;28;20028;-69
2023/05/31 09:45:46;;;;;;;22.15;20.65;;;25.90;99.90;;;;;;5227502;28;20025;-70
2023/05/31 09:48:18;;;;;;;22.85;21.35;;;26.00;99.90;;;;;;5227351;28;20503;-68
2023/05/31 09:50:49;;;;;;;23.45;21.50;;;26.00;99.90;;;;;;5227467;28;20033;-68
2023/05/31 09:53:20;;;;;;;21.90;20.23;;;25.70;99.90;;;;;;5227473;28;20033;-70
2023/05/31 09:55:51;;;;;;;22.13;20.45;;;26.20;99.90;;;;;;5227453;28;20349;-67
2023/05/31 09:58:32;;;;;;;22.65;20.77;;;25.90;99.90;;;;;;5227147;28;20063;-67
2023/05/31 10:01:03;;;;;;;23.58;21.98;;;26.30;99.90;;;;;;5227454;28;20021;-68
2023/05/31 10:03:35;;;;;;;24.83;23.23;;;26.00;99.90;;;;;;5227752;28;20075;-69
2023/05/31 10:06:06;;;;;;;26.45;24.30;;;25.60;99.90;;;;;;5227416;28;20061;-67
2023/05/31 10:08:38;;;;;;;25.98;23.45;;;26.10;99.90;;;;;;5227216;28;20388;-66
2023/05/31 10:11:12;;;;;;;22.63;21.02;;;25.90;99.90;;;;;;5227099;28;20092;-69
2023/05/31 10:13:46;;;;;;;21.95;20.42;;;26.00;99.90;;;;;;5227180;28;20445;-70
2023/05/31 10:16:21;;;;;;;21.55;20.00;;;26.00;99.90;;;;;;5226974;28;20013;-66
2023/05/31 10:18:54;;;;;;;24.52;22.92;;;26.10;99.90;;;;;;5226816;28;20064;-68
2023/05/31 10:21:27;;;;;;;25.80;23.65;;;26.40;99.90;;;;;;5226874;28;20556;-67
2023/05/31 10:24:20;;;;;;;27.80;25.88;;;26.50;99.90;;;;;;5226980;28;20404;-67
2023/05/31 10:27:08;;;;;;;23.30;21.90;;;26.40;99.90;;;;;;5226827;28;20552;-69
2023/05/31 10:29:51;;;;;;;24.85;23.13;;;26.60;99.90;;;;;;5226924;28;20096;-70
2023/05/31 10:32:32;;;;;;;25.65;23.75;;;26.60;99.90;;;;;;5226782;28;20021;-70
2023/05/31 10:35:03;;;;;;;25.30;23.67;;;26.50;99.90;;;;;;5226738;28;20021;-70
2023/05/31 10:37:34;;;;;;;24.95;23.30;;;26.50;99.90;;;;;;5208745;28;20104;-68
2023/05/31 10:40:18;;;;;;;25.90;24.00;;;26.50;99.90;;;;;;5226634;28;20032;-67
2023/05/31 10:42:49;;;;;;;26.20;24.60;;;26.50;99.90;;;;;;5226662;28;20013;-70
2023/05/31 10:45:26;;;;;;;25.25;23.60;;;26.60;99.90;;;;;;5226513;28;20029;-68
2023/05/31 10:48:13;;;;;;;26.60;24.67;;;26.60;99.90;;;;;;5226069;28;20032;-68
2023/05/31 10:50:53;;;;;;;26.73;24.73;;;26.80;99.90;;;;;;5226421;28;20037;-69
2023/05/31 10:53:35;;;;;;;26.55;24.85;;;26.60;99.90;;;;;;5226428;28;20029;-67
2023/05/31 10:56:09;;;;;;;28.02;26.15;;;26.50;99.90;;;;;;5226517;28;20481;-70
2023/05/31 10:58:50;;;;;;;27.55;25.65;;;26.60;99.90;;;;;;5226194;28;20029;-66
2023/05/31 11:01:21;;;;;;;28.35;26.60;;;26.80;99.90;;;;;;5226301;28;20029;-67
2023/05/31 11:03:53;;;;;;;26.27;24.73;;;26.50;99.90;;;;;;5226256;28;20028;-68
2023/05/31 11:06:36;;;;;;;27.08;25.25;;;26.40;99.90;;;;;;5226215;28;20098;-70
2023/05/31 11:09:12;;;;;;;26.92;25.15;;;26.70;99.90;;;;;;5226190;28;20021;-67
2023/05/31 11:11:46;;;;;;;26.98;25.02;;;26.60;99.90;;;;;;5226281;28;20059;-66
2023/05/31 11:14:28;;;;;;;26.67;25.08;;;26.70;99.90;;;;;;5226308;28;20023;-68
2023/05/31 11:17:04;;;;;;;29.33;27.42;;;26.40;99.90;;;;;;5226311;28;20029;-70
2023/05/31 11:19:36;;;;;;;30.27;28.42;;;26.20;99.90;;;;;;5226125;28;20049;-68
2023/05/31 11:22:14;;;;;;;29.15;27.15;;;26.50;99.90;;;;;;5226294;28;20131;-69
2023/05/31 11:24:57;;;;;;;29.83;27.37;;;26.30;99.90;;;;;;5226243;28;20102;-70
2023/05/31 11:27:36;;;;;;;30.25;28.25;;;26.60;99.90;;;;;;5239065;28;20351;-66
2023/05/31 11:30:09;;;;;;;28.38;26.60;;;26.50;99.90;;;;;;5246838;28;20330;-69
2023/05/31 11:32:40;;;;;;;27.33;25.63;;;26.60;99.90;;;;;;5246889;28;20103;-69
2023/05/31 11:35:15;;;;;;;29.33;27.38;;;26.90;99.90;;;;;;5228454;28;20024;-68
2023/05/31 11:37:46;;;;;;;31.17;29.13;;;26.70;99.90;;;;;;5246801;28;20032;-66
2023/05/31 11:40:17;;;;;;;29.63;27.90;;;26.80;99.90;;;;;;5246801;28;20357;-66
2023/05/31 11:42:48;;;;;;;29.50;27.63;;;26.70;99.90;;;;;;5246721;28;20107;-67
2023/05/31 11:45:25;;;;;;;29.83;27.60;;;27.00;99.90;;;;;;5246652;28;20066;-70
2023/05/31 11:48:02;;;;;;;28.50;26.80;;;27.20;99.90;;;;;;5246664;28;20032;-70
2023/05/31 11:50:33;;;;;;;29.73;27.67;;;26.80;99.90;;;;;;5246628;28;20037;-67
2023/05/31 11:53:06;;;;;;;31.30;29.05;;;26.90;99.90;;;;;;5246575;28;20032;-66
2023/05/31 11:55:37;;;;;;;29.92;27.92;;;26.90;99.90;;;;;;5246666;28;20028;-68
2023/05/31 11:58:08;;;;;;;31.23;29.23;;;27.00;99.90;;;;;;5246490;28;20025;-68
2023/05/31 12:00:46;;;;;;;34.47;32.17;;;26.90;99.90;;;;;;5248230;28;20100;-71
2023/05/31 12:03:19;;;;;;;34.63;32.47;;;27.00;99.90;;;;;;5250290;28;20017;-68
2023/05/31 12:05:51;;;;;;;33.28;30.83;;;27.00;99.90;;;;;;5250245;28;20453;-69
2023/05/31 12:08:22;;;;;;;32.05;29.77;;;27.00;99.90;;;;;;5250015;28;20490;-68
2023/05/31 12:10:54;;;;;;;34.30;31.98;;;27.00;99.90;;;;;;5232154;28;20024;-69
2023/05/31 12:13:25;;;;;;;31.35;29.27;;;27.20;99.90;;;;;;5249990;28;20380;-66
2023/05/31 12:15:57;;;;;;;33.33;31.00;;;27.10;99.90;;;;;;5249895;28;20021;-68
2023/05/31 12:18:28;;;;;;;32.08;29.77;;;27.20;99.90;;;;;;5249682;28;20017;-68
2023/05/31 12:21:08;;;;;;;32.83;30.95;;;27.10;99.90;;;;;;5249683;28;20139;-69
2023/05/31 12:24:14;;;;;;;32.15;29.92;;;27.10;99.90;;;;;;5249928;28;20024;-69
2023/05/31 12:26:48;;;;;;;33.88;31.75;;;27.40;99.90;;;;;;5232050;28;20093;-68
2023/05/31 12:29:25;;;;;;;30.83;28.48;;;27.20;99.90;;;;;;5249716;28;20032;-69
2023/05/31 12:32:06;;;;;;;29.23;27.33;;;27.30;99.90;;;;;;5249749;28;20372;-70
2023/05/31 12:34:38;;;;;;;27.88;26.13;;;27.20;99.90;;;;;;5249711;28;20031;-67
2023/05/31 12:37:10;;;;;;;29.02;27.23;;;27.30;99.90;;;;;;5249792;28;20028;-68
2023/05/31 12:39:41;;;;;;;29.98;27.35;;;27.30;99.90;;;;;;5249771;28;20464;-67
2023/05/31 12:42:12;;;;;;;28.42;26.70;;;27.30;99.90;;;;;;5249773;28;20016;-70
2023/05/31 12:44:43;;;;;;;27.67;25.92;;;27.40;99.90;;;;;;5249588;28;20073;-68
2023/05/31 12:47:14;;;;;;;29.48;27.42;;;27.20;99.90;;;;;;5249557;28;20044;-67
2023/05/31 12:49:45;;;;;;;30.25;28.25;;;27.20;99.90;;;;;;5249348;28;20051;-66
2023/05/31 12:52:16;;;;;;;29.85;27.95;;;27.30;99.90;;;;;;5249501;28;20504;-69
2023/05/31 12:54:47;;;;;;;30.42;27.90;;;27.30;99.90;;;;;;5249370;28;20025;-67